sensor_id;sensor_type;location;lat;lon;timestamp;pressure;altitude;pressure_sealevel;temperature;humidity
34065;BME280;20339;49.754;20.158;2023-02-17T00:00:33;97181.66;;;2.77;69.98
34065;BME280;20339;49.754;20.158;2023-02-17T00:03:24;97180.46;;;2.80;70.12
34065;BME280;20339;49.754;20.158;2023-02-17T00:05:55;97186.48;;;2.78;70.08
34065;BME280;20339;49.754;20.158;2023-02-17T00:08:26;97181.84;;;2.71;70.10
34065;BME280;20339;49.754;20.158;2023-02-17T00:10:58;97183.95;;;2.70;70.19
34065;BME280;20339;49.754;20.158;2023-02-17T00:13:29;97186.77;;;2.73;70.33
34065;BME280;20339;49.754;20.158;2023-02-17T00:16:06;97185.90;;;2.76;70.33
34065;BME280;20339;49.754;20.158;2023-02-17T00:18:37;97182.90;;;2.73;70.26
34065;BME280;20339;49.754;20.158;2023-02-17T00:21:17;97183.30;;;2.75;70.37
34065;BME280;20339;49.754;20.158;2023-02-17T00:23:49;97183.83;;;2.74;70.40
34065;BME280;20339;49.754;20.158;2023-02-17T00:26:22;97185.19;;;2.75;70.44
34065;BME280;20339;49.754;20.158;2023-02-17T00:28:53;97183.65;;;2.76;70.46
34065;BME280;20339;49.754;20.158;2023-02-17T00:31:24;97187.23;;;2.81;70.42
34065;BME280;20339;49.754;20.158;2023-02-17T00:33:56;97190.13;;;2.83;70.28
34065;BME280;20339;49.754;20.158;2023-02-17T00:36:27;97186.45;;;2.83;70.30
34065;BME280;20339;49.754;20.158;2023-02-17T00:38:59;97183.73;;;2.83;70.20
34065;BME280;20339;49.754;20.158;2023-02-17T00:41:30;97185.42;;;2.80;70.22
34065;BME280;20339;49.754;20.158;2023-02-17T00:44:01;97182.36;;;2.75;70.25
34065;BME280;20339;49.754;20.158;2023-02-17T00:46:32;97179.90;;;2.75;70.42
34065;BME280;20339;49.754;20.158;2023-02-17T00:49:03;97177.14;;;2.74;70.42
34065;BME280;20339;49.754;20.158;2023-02-17T00:51:34;97173.45;;;2.73;70.68
34065;BME280;20339;49.754;20.158;2023-02-17T00:54:08;97173.28;;;2.74;70.65
34065;BME280;20339;49.754;20.158;2023-02-17T00:56:39;97170.45;;;2.70;70.70
34065;BME280;20339;49.754;20.158;2023-02-17T00:59:11;97168.45;;;2.68;70.83
34065;BME280;20339;49.754;20.158;2023-02-17T01:01:42;97166.34;;;2.63;70.94
34065;BME280;20339;49.754;20.158;2023-02-17T01:04:13;97161.48;;;2.62;71.10
34065;BME280;20339;49.754;20.158;2023-02-17T01:06:44;97167.30;;;2.60;71.21
34065;BME280;20339;49.754;20.158;2023-02-17T01:09:15;97161.70;;;2.57;71.21
34065;BME280;20339;49.754;20.158;2023-02-17T01:11:46;97153.88;;;2.53;71.08
34065;BME280;20339;49.754;20.158;2023-02-17T01:14:18;97154.87;;;2.48;71.19
34065;BME280;20339;49.754;20.158;2023-02-17T01:16:49;97154.59;;;2.44;71.17
34065;BME280;20339;49.754;20.158;2023-02-17T01:19:20;97151.72;;;2.41;71.21
34065;BME280;20339;49.754;20.158;2023-02-17T01:21:51;97148.82;;;2.39;71.46
34065;BME280;20339;49.754;20.158;2023-02-17T01:24:22;97148.04;;;2.35;71.55
34065;BME280;20339;49.754;20.158;2023-02-17T01:26:54;97146.80;;;2.35;71.55
34065;BME280;20339;49.754;20.158;2023-02-17T01:29:24;97145.84;;;2.29;71.86
34065;BME280;20339;49.754;20.158;2023-02-17T01:31:55;97146.70;;;2.25;71.99
34065;BME280;20339;49.754;20.158;2023-02-17T01:34:27;97143.33;;;2.23;71.99
34065;BME280;20339;49.754;20.158;2023-02-17T01:36:58;97141.63;;;2.20;72.19
34065;BME280;20339;49.754;20.158;2023-02-17T01:39:29;97133.98;;;2.19;72.31
34065;BME280;20339;49.754;20.158;2023-02-17T01:42:00;97132.15;;;2.18;72.37
34065;BME280;20339;49.754;20.158;2023-02-17T01:44:32;97129.48;;;2.20;72.45
34065;BME280;20339;49.754;20.158;2023-02-17T01:47:04;97125.20;;;2.22;72.32
34065;BME280;20339;49.754;20.158;2023-02-17T01:49:36;97116.17;;;2.23;72.57
34065;BME280;20339;49.754;20.158;2023-02-17T01:52:12;97113.19;;;2.24;72.68
34065;BME280;20339;49.754;20.158;2023-02-17T01:54:48;97112.21;;;2.24;72.91
34065;BME280;20339;49.754;20.158;2023-02-17T01:57:24;97111.73;;;2.23;73.04
34065;BME280;20339;49.754;20.158;2023-02-17T01:59:56;97110.40;;;2.24;72.93
34065;BME280;20339;49.754;20.158;2023-02-17T02:02:28;97099.73;;;2.22;72.99
34065;BME280;20339;49.754;20.158;2023-02-17T02:05:00;97095.23;;;2.19;73.07
34065;BME280;20339;49.754;20.158;2023-02-17T02:07:34;97087.48;;;2.17;73.18
34065;BME280;20339;49.754;20.158;2023-02-17T02:10:09;97084.27;;;2.16;73.31
34065;BME280;20339;49.754;20.158;2023-02-17T02:12:41;97083.30;;;2.17;73.25
34065;BME280;20339;49.754;20.158;2023-02-17T02:15:14;97085.00;;;2.16;73.24
34065;BME280;20339;49.754;20.158;2023-02-17T02:18:01;97085.30;;;2.14;73.17
34065;BME280;20339;49.754;20.158;2023-02-17T02:21:01;97078.04;;;2.13;73.14
34065;BME280;20339;49.754;20.158;2023-02-17T02:27:01;97071.04;;;2.17;73.30
34065;BME280;20339;49.754;20.158;2023-02-17T02:29:57;97073.65;;;2.21;73.38
34065;BME280;20339;49.754;20.158;2023-02-17T02:32:45;97073.71;;;2.30;73.24
34065;BME280;20339;49.754;20.158;2023-02-17T02:35:21;97076.23;;;2.30;73.26
34065;BME280;20339;49.754;20.158;2023-02-17T02:38:01;97081.02;;;2.29;73.17
34065;BME280;20339;49.754;20.158;2023-02-17T02:40:41;97081.65;;;2.33;73.43
34065;BME280;20339;49.754;20.158;2023-02-17T02:43:13;97082.54;;;2.32;73.28
34065;BME280;20339;49.754;20.158;2023-02-17T02:45:45;97086.30;;;2.31;73.32
34065;BME280;20339;49.754;20.158;2023-02-17T02:48:16;97085.48;;;2.31;73.24
34065;BME280;20339;49.754;20.158;2023-02-17T02:51:00;97086.91;;;2.30;73.06
34065;BME280;20339;49.754;20.158;2023-02-17T02:53:47;97091.44;;;2.27;72.90
34065;BME280;20339;49.754;20.158;2023-02-17T02:56:29;97089.04;;;2.26;72.77
34065;BME280;20339;49.754;20.158;2023-02-17T02:59:13;97091.98;;;2.25;72.78
34065;BME280;20339;49.754;20.158;2023-02-17T03:01:53;97094.90;;;2.20;72.82
34065;BME280;20339;49.754;20.158;2023-02-17T03:04:31;97098.61;;;2.16;72.87
34065;BME280;20339;49.754;20.158;2023-02-17T03:07:10;97096.51;;;2.13;73.03
34065;BME280;20339;49.754;20.158;2023-02-17T03:09:51;97098.77;;;2.12;72.97
34065;BME280;20339;49.754;20.158;2023-02-17T03:12:24;97099.08;;;2.10;73.19
34065;BME280;20339;49.754;20.158;2023-02-17T03:15:00;97097.91;;;2.10;73.26
34065;BME280;20339;49.754;20.158;2023-02-17T03:17:33;97098.66;;;2.11;73.46
34065;BME280;20339;49.754;20.158;2023-02-17T03:20:06;97097.96;;;2.08;73.52
34065;BME280;20339;49.754;20.158;2023-02-17T03:22:40;97098.45;;;2.07;73.65
34065;BME280;20339;49.754;20.158;2023-02-17T03:25:13;97105.05;;;2.07;73.99
34065;BME280;20339;49.754;20.158;2023-02-17T03:27:44;97096.80;;;2.08;73.92
34065;BME280;20339;49.754;20.158;2023-02-17T03:30:15;97091.79;;;2.14;74.15
34065;BME280;20339;49.754;20.158;2023-02-17T03:32:46;97095.59;;;2.22;74.13
34065;BME280;20339;49.754;20.158;2023-02-17T03:35:18;97090.86;;;2.33;74.29
34065;BME280;20339;49.754;20.158;2023-02-17T03:37:49;97083.27;;;2.41;74.18
34065;BME280;20339;49.754;20.158;2023-02-17T03:40:21;97081.52;;;2.44;74.17
34065;BME280;20339;49.754;20.158;2023-02-17T03:42:51;97083.14;;;2.44;74.20
34065;BME280;20339;49.754;20.158;2023-02-17T03:45:22;97077.06;;;2.43;74.37
34065;BME280;20339;49.754;20.158;2023-02-17T03:47:54;97079.02;;;2.44;74.45
34065;BME280;20339;49.754;20.158;2023-02-17T03:50:25;97084.95;;;2.44;74.57
34065;BME280;20339;49.754;20.158;2023-02-17T03:52:56;97082.69;;;2.48;74.69
34065;BME280;20339;49.754;20.158;2023-02-17T03:55:28;97078.99;;;2.47;74.58
34065;BME280;20339;49.754;20.158;2023-02-17T03:57:59;97071.48;;;2.45;74.62
34065;BME280;20339;49.754;20.158;2023-02-17T04:00:30;97073.70;;;2.41;74.74
34065;BME280;20339;49.754;20.158;2023-02-17T04:03:01;97069.73;;;2.40;74.76
34065;BME280;20339;49.754;20.158;2023-02-17T04:05:32;97069.58;;;2.43;75.05
34065;BME280;20339;49.754;20.158;2023-02-17T04:08:03;97070.83;;;2.47;74.84
34065;BME280;20339;49.754;20.158;2023-02-17T04:10:34;97074.80;;;2.48;75.13
34065;BME280;20339;49.754;20.158;2023-02-17T04:13:05;97077.06;;;2.51;75.15
34065;BME280;20339;49.754;20.158;2023-02-17T04:15:36;97072.23;;;2.52;75.33
34065;BME280;20339;49.754;20.158;2023-02-17T04:18:07;97066.17;;;2.54;75.22
34065;BME280;20339;49.754;20.158;2023-02-17T04:20:39;97060.68;;;2.56;75.20
34065;BME280;20339;49.754;20.158;2023-02-17T04:23:10;97060.89;;;2.59;75.32
34065;BME280;20339;49.754;20.158;2023-02-17T04:25:43;97060.09;;;2.62;75.20
34065;BME280;20339;49.754;20.158;2023-02-17T04:28:15;97053.44;;;2.67;75.07
34065;BME280;20339;49.754;20.158;2023-02-17T04:30:48;97065.21;;;2.70;74.81
34065;BME280;20339;49.754;20.158;2023-02-17T04:33:19;97060.93;;;2.75;74.58
34065;BME280;20339;49.754;20.158;2023-02-17T04:35:50;97069.17;;;2.75;74.53
34065;BME280;20339;49.754;20.158;2023-02-17T04:38:22;97061.45;;;2.75;74.45
34065;BME280;20339;49.754;20.158;2023-02-17T04:40:55;97062.91;;;2.74;74.35
34065;BME280;20339;49.754;20.158;2023-02-17T04:43:27;97057.04;;;2.74;74.37
34065;BME280;20339;49.754;20.158;2023-02-17T04:45:59;97054.66;;;2.71;74.48
34065;BME280;20339;49.754;20.158;2023-02-17T04:48:30;97048.17;;;2.71;74.50
34065;BME280;20339;49.754;20.158;2023-02-17T04:51:01;97056.19;;;2.71;74.41
34065;BME280;20339;49.754;20.158;2023-02-17T04:53:32;97059.39;;;2.70;74.55
34065;BME280;20339;49.754;20.158;2023-02-17T04:56:04;97054.70;;;2.71;74.47
34065;BME280;20339;49.754;20.158;2023-02-17T04:58:35;97051.94;;;2.73;74.45
34065;BME280;20339;49.754;20.158;2023-02-17T05:01:07;97051.86;;;2.76;74.34
34065;BME280;20339;49.754;20.158;2023-02-17T05:03:38;97052.55;;;2.78;74.13
34065;BME280;20339;49.754;20.158;2023-02-17T05:06:09;97059.91;;;2.80;73.91
34065;BME280;20339;49.754;20.158;2023-02-17T05:08:41;97055.06;;;2.89;73.82
34065;BME280;20339;49.754;20.158;2023-02-17T05:11:12;97053.29;;;2.97;73.52
34065;BME280;20339;49.754;20.158;2023-02-17T05:13:44;97052.17;;;3.03;73.33
34065;BME280;20339;49.754;20.158;2023-02-17T05:16:15;97057.80;;;3.04;73.15
34065;BME280;20339;49.754;20.158;2023-02-17T05:18:46;97048.12;;;3.05;72.91
34065;BME280;20339;49.754;20.158;2023-02-17T05:21:17;97052.40;;;3.04;72.78
34065;BME280;20339;49.754;20.158;2023-02-17T05:23:48;97050.77;;;2.99;72.75
34065;BME280;20339;49.754;20.158;2023-02-17T05:26:19;97042.95;;;2.95;72.65
34065;BME280;20339;49.754;20.158;2023-02-17T05:28:50;97037.70;;;2.92;72.68
34065;BME280;20339;49.754;20.158;2023-02-17T05:31:22;97032.70;;;2.92;72.99
34065;BME280;20339;49.754;20.158;2023-02-17T05:33:55;97026.33;;;2.98;73.13
34065;BME280;20339;49.754;20.158;2023-02-17T05:36:26;97018.34;;;3.02;73.01
34065;BME280;20339;49.754;20.158;2023-02-17T05:38:57;97017.77;;;3.08;72.90
34065;BME280;20339;49.754;20.158;2023-02-17T05:41:29;97013.10;;;3.12;72.71
34065;BME280;20339;49.754;20.158;2023-02-17T05:44:00;97010.98;;;3.16;72.60
34065;BME280;20339;49.754;20.158;2023-02-17T05:46:31;97017.54;;;3.20;72.52
34065;BME280;20339;49.754;20.158;2023-02-17T05:49:03;97018.02;;;3.24;72.26
34065;BME280;20339;49.754;20.158;2023-02-17T05:51:34;97025.72;;;3.28;72.13
34065;BME280;20339;49.754;20.158;2023-02-17T05:54:05;97031.05;;;3.30;72.09
34065;BME280;20339;49.754;20.158;2023-02-17T05:56:37;97032.20;;;3.31;72.14
34065;BME280;20339;49.754;20.158;2023-02-17T05:59:08;97030.34;;;3.32;72.06
34065;BME280;20339;49.754;20.158;2023-02-17T06:01:39;97025.48;;;3.33;71.98
34065;BME280;20339;49.754;20.158;2023-02-17T06:04:12;97028.06;;;3.35;71.90
34065;BME280;20339;49.754;20.158;2023-02-17T06:06:43;97029.75;;;3.36;71.74
34065;BME280;20339;49.754;20.158;2023-02-17T06:09:14;97031.64;;;3.34;71.76
34065;BME280;20339;49.754;20.158;2023-02-17T06:11:45;97034.09;;;3.31;71.80
34065;BME280;20339;49.754;20.158;2023-02-17T06:14:17;97028.59;;;3.27;72.01
34065;BME280;20339;49.754;20.158;2023-02-17T06:16:48;97026.91;;;3.22;71.96
34065;BME280;20339;49.754;20.158;2023-02-17T06:19:22;97027.66;;;3.17;72.07
34065;BME280;20339;49.754;20.158;2023-02-17T06:21:54;97023.20;;;3.12;72.21
34065;BME280;20339;49.754;20.158;2023-02-17T06:24:26;97025.17;;;3.11;72.32
34065;BME280;20339;49.754;20.158;2023-02-17T06:26:57;97022.17;;;3.13;72.40
34065;BME280;20339;49.754;20.158;2023-02-17T06:29:28;97019.16;;;3.16;72.44
34065;BME280;20339;49.754;20.158;2023-02-17T06:32:00;97006.23;;;3.19;72.35
34065;BME280;20339;49.754;20.158;2023-02-17T06:34:31;97011.70;;;3.22;72.36
34065;BME280;20339;49.754;20.158;2023-02-17T06:37:02;96999.74;;;3.26;72.31
34065;BME280;20339;49.754;20.158;2023-02-17T06:39:33;96993.48;;;3.34;72.34
34065;BME280;20339;49.754;20.158;2023-02-17T06:42:11;96987.65;;;3.41;72.22
34065;BME280;20339;49.754;20.158;2023-02-17T06:44:49;96983.83;;;3.48;72.27
34065;BME280;20339;49.754;20.158;2023-02-17T06:47:21;96979.58;;;3.51;72.30
34065;BME280;20339;49.754;20.158;2023-02-17T06:49:52;96972.98;;;3.55;72.44
34065;BME280;20339;49.754;20.158;2023-02-17T06:52:23;96969.19;;;3.59;72.44
34065;BME280;20339;49.754;20.158;2023-02-17T06:54:54;96968.87;;;3.62;72.46
34065;BME280;20339;49.754;20.158;2023-02-17T06:57:26;96970.41;;;3.67;72.48
34065;BME280;20339;49.754;20.158;2023-02-17T06:59:57;96970.15;;;3.73;72.43
34065;BME280;20339;49.754;20.158;2023-02-17T07:02:28;96966.23;;;3.78;72.42
34065;BME280;20339;49.754;20.158;2023-02-17T07:05:00;96967.58;;;3.83;72.31
34065;BME280;20339;49.754;20.158;2023-02-17T07:07:31;96973.20;;;3.89;72.44
34065;BME280;20339;49.754;20.158;2023-02-17T07:10:06;96973.80;;;3.95;72.40
34065;BME280;20339;49.754;20.158;2023-02-17T07:12:37;96972.81;;;4.06;72.60
34065;BME280;20339;49.754;20.158;2023-02-17T07:15:09;96979.13;;;4.18;72.92
34065;BME280;20339;49.754;20.158;2023-02-17T07:17:40;96986.27;;;4.28;72.88
34065;BME280;20339;49.754;20.158;2023-02-17T07:20:12;96986.21;;;4.37;72.88
34065;BME280;20339;49.754;20.158;2023-02-17T07:22:43;96993.44;;;4.50;72.98
34065;BME280;20339;49.754;20.158;2023-02-17T07:25:14;96997.46;;;4.59;72.80
34065;BME280;20339;49.754;20.158;2023-02-17T07:27:45;96999.37;;;4.70;72.70
34065;BME280;20339;49.754;20.158;2023-02-17T07:30:17;97007.20;;;4.76;72.59
34065;BME280;20339;49.754;20.158;2023-02-17T07:32:48;97004.77;;;4.80;72.46
34065;BME280;20339;49.754;20.158;2023-02-17T07:35:19;97006.99;;;4.80;72.57
34065;BME280;20339;49.754;20.158;2023-02-17T07:37:50;97007.80;;;4.84;72.68
34065;BME280;20339;49.754;20.158;2023-02-17T07:40:21;97013.85;;;4.90;72.49
34065;BME280;20339;49.754;20.158;2023-02-17T07:42:52;97007.20;;;4.91;72.43
34065;BME280;20339;49.754;20.158;2023-02-17T07:45:23;97014.53;;;4.94;72.25
34065;BME280;20339;49.754;20.158;2023-02-17T07:47:54;97005.73;;;4.95;72.07
34065;BME280;20339;49.754;20.158;2023-02-17T07:50:25;97005.56;;;4.95;71.92
34065;BME280;20339;49.754;20.158;2023-02-17T07:52:56;97003.30;;;4.93;72.04
34065;BME280;20339;49.754;20.158;2023-02-17T07:55:27;97000.13;;;4.89;71.89
34065;BME280;20339;49.754;20.158;2023-02-17T07:57:59;97004.06;;;4.87;72.04
34065;BME280;20339;49.754;20.158;2023-02-17T08:00:30;96999.85;;;4.83;72.24
34065;BME280;20339;49.754;20.158;2023-02-17T08:03:00;97003.80;;;4.81;72.47
34065;BME280;20339;49.754;20.158;2023-02-17T08:05:32;96999.98;;;4.79;72.57
34065;BME280;20339;49.754;20.158;2023-02-17T08:08:04;96996.38;;;4.80;72.83
34065;BME280;20339;49.754;20.158;2023-02-17T08:10:54;96981.49;;;4.82;73.08
34065;BME280;20339;49.754;20.158;2023-02-17T08:13:47;96975.67;;;4.86;73.38
34065;BME280;20339;49.754;20.158;2023-02-17T08:16:18;96976.91;;;4.90;73.66
34065;BME280;20339;49.754;20.158;2023-02-17T08:18:50;96977.98;;;4.96;73.79
34065;BME280;20339;49.754;20.158;2023-02-17T08:21:21;96974.02;;;5.03;73.96
34065;BME280;20339;49.754;20.158;2023-02-17T08:23:53;96972.30;;;5.11;74.20
34065;BME280;20339;49.754;20.158;2023-02-17T08:26:25;96962.41;;;5.19;74.14
34065;BME280;20339;49.754;20.158;2023-02-17T08:28:56;96953.95;;;5.29;74.35
34065;BME280;20339;49.754;20.158;2023-02-17T08:31:28;96955.44;;;5.35;74.44
34065;BME280;20339;49.754;20.158;2023-02-17T08:34:02;96959.55;;;5.42;74.80
34065;BME280;20339;49.754;20.158;2023-02-17T08:36:34;96957.61;;;5.52;74.96
34065;BME280;20339;49.754;20.158;2023-02-17T08:39:08;96960.27;;;5.63;74.94
34065;BME280;20339;49.754;20.158;2023-02-17T08:41:41;96955.41;;;5.74;75.18
34065;BME280;20339;49.754;20.158;2023-02-17T08:44:14;96956.75;;;5.85;74.81
34065;BME280;20339;49.754;20.158;2023-02-17T08:46:46;96948.86;;;5.98;74.96
34065;BME280;20339;49.754;20.158;2023-02-17T08:49:20;96948.32;;;6.14;74.73
34065;BME280;20339;49.754;20.158;2023-02-17T08:51:52;96945.09;;;6.35;74.41
34065;BME280;20339;49.754;20.158;2023-02-17T08:54:23;96939.29;;;6.58;74.16
34065;BME280;20339;49.754;20.158;2023-02-17T08:56:56;96937.09;;;6.99;73.55
34065;BME280;20339;49.754;20.158;2023-02-17T08:59:28;96933.42;;;7.23;72.05
34065;BME280;20339;49.754;20.158;2023-02-17T09:02:00;96945.70;;;7.31;71.84
34065;BME280;20339;49.754;20.158;2023-02-17T09:04:31;96945.48;;;7.30;71.13
34065;BME280;20339;49.754;20.158;2023-02-17T09:07:02;96934.58;;;7.36;71.09
34065;BME280;20339;49.754;20.158;2023-02-17T09:09:33;96936.60;;;7.51;71.13
34065;BME280;20339;49.754;20.158;2023-02-17T09:12:04;96930.83;;;7.65;70.69
34065;BME280;20339;49.754;20.158;2023-02-17T09:14:36;96932.33;;;7.62;69.97
34065;BME280;20339;49.754;20.158;2023-02-17T09:17:07;96934.80;;;7.48;70.15
34065;BME280;20339;49.754;20.158;2023-02-17T09:19:39;96931.12;;;7.50;70.18
34065;BME280;20339;49.754;20.158;2023-02-17T09:22:13;96936.58;;;7.47;70.01
34065;BME280;20339;49.754;20.158;2023-02-17T09:24:46;96936.44;;;7.44;69.99
34065;BME280;20339;49.754;20.158;2023-02-17T09:27:17;96935.63;;;7.42;70.18
34065;BME280;20339;49.754;20.158;2023-02-17T09:29:48;96929.02;;;7.34;70.09
34065;BME280;20339;49.754;20.158;2023-02-17T09:32:20;96923.52;;;7.33;70.07
34065;BME280;20339;49.754;20.158;2023-02-17T09:34:51;96923.63;;;7.30;70.30
34065;BME280;20339;49.754;20.158;2023-02-17T09:37:23;96919.77;;;7.40;70.63
34065;BME280;20339;49.754;20.158;2023-02-17T09:39:54;96915.88;;;7.51;70.33
34065;BME280;20339;49.754;20.158;2023-02-17T09:42:27;96910.77;;;7.46;70.04
34065;BME280;20339;49.754;20.158;2023-02-17T09:45:01;96913.85;;;7.37;69.93
34065;BME280;20339;49.754;20.158;2023-02-17T09:47:38;96915.16;;;7.26;70.00
34065;BME280;20339;49.754;20.158;2023-02-17T09:50:16;96909.11;;;7.17;70.17
34065;BME280;20339;49.754;20.158;2023-02-17T09:52:53;96903.93;;;7.09;70.67
34065;BME280;20339;49.754;20.158;2023-02-17T09:55:29;96903.41;;;7.04;71.21
34065;BME280;20339;49.754;20.158;2023-02-17T09:58:05;96899.21;;;7.03;71.36
34065;BME280;20339;49.754;20.158;2023-02-17T10:00:41;96892.78;;;6.97;71.64
34065;BME280;20339;49.754;20.158;2023-02-17T10:03:17;96885.83;;;6.88;72.06
34065;BME280;20339;49.754;20.158;2023-02-17T10:05:53;96882.64;;;6.80;72.38
34065;BME280;20339;49.754;20.158;2023-02-17T10:08:29;96869.98;;;6.70;73.15
34065;BME280;20339;49.754;20.158;2023-02-17T10:11:07;96869.23;;;6.60;73.65
34065;BME280;20339;49.754;20.158;2023-02-17T10:13:41;96868.02;;;6.53;74.42
34065;BME280;20339;49.754;20.158;2023-02-17T10:16:22;96862.70;;;6.50;75.42
34065;BME280;20339;49.754;20.158;2023-02-17T10:19:01;96856.79;;;6.40;76.52
34065;BME280;20339;49.754;20.158;2023-02-17T10:21:39;96863.08;;;6.30;77.44
34065;BME280;20339;49.754;20.158;2023-02-17T10:24:12;96867.21;;;6.24;78.77
34065;BME280;20339;49.754;20.158;2023-02-17T10:29:48;96856.67;;;6.21;80.02
34065;BME280;20339;49.754;20.158;2023-02-17T10:32:24;96844.16;;;6.24;80.94
34065;BME280;20339;49.754;20.158;2023-02-17T10:35:15;96842.14;;;6.22;81.55
34065;BME280;20339;49.754;20.158;2023-02-17T10:37:52;96844.90;;;6.17;81.29
34065;BME280;20339;49.754;20.158;2023-02-17T10:40:27;96842.12;;;6.17;81.65
34065;BME280;20339;49.754;20.158;2023-02-17T10:43:01;96831.30;;;6.19;81.59
34065;BME280;20339;49.754;20.158;2023-02-17T10:45:36;96833.59;;;6.20;81.91
34065;BME280;20339;49.754;20.158;2023-02-17T10:48:13;96835.13;;;6.21;81.88
34065;BME280;20339;49.754;20.158;2023-02-17T10:50:46;96831.20;;;6.19;82.17
34065;BME280;20339;49.754;20.158;2023-02-17T10:53:20;96837.00;;;6.16;82.42
34065;BME280;20339;49.754;20.158;2023-02-17T10:55:59;96836.56;;;6.16;82.72
34065;BME280;20339;49.754;20.158;2023-02-17T10:58:35;96834.02;;;6.18;83.24
34065;BME280;20339;49.754;20.158;2023-02-17T11:01:08;96830.81;;;6.19;83.42
34065;BME280;20339;49.754;20.158;2023-02-17T11:03:40;96827.68;;;6.17;83.77
34065;BME280;20339;49.754;20.158;2023-02-17T11:06:18;96815.23;;;6.13;83.75
34065;BME280;20339;49.754;20.158;2023-02-17T11:08:53;96813.39;;;6.05;83.98
34065;BME280;20339;49.754;20.158;2023-02-17T11:11:27;96807.06;;;5.96;84.55
34065;BME280;20339;49.754;20.158;2023-02-17T11:14:08;96791.25;;;5.85;85.14
34065;BME280;20339;49.754;20.158;2023-02-17T11:16:41;96784.37;;;5.74;86.20
34065;BME280;20339;49.754;20.158;2023-02-17T11:19:23;96788.72;;;5.64;87.00
34065;BME280;20339;49.754;20.158;2023-02-17T11:21:56;96780.81;;;5.57;87.61
34065;BME280;20339;49.754;20.158;2023-02-17T11:24:29;96786.75;;;5.52;88.03
34065;BME280;20339;49.754;20.158;2023-02-17T11:27:03;96777.68;;;5.50;88.35
34065;BME280;20339;49.754;20.158;2023-02-17T11:29:34;96768.64;;;5.48;88.81
34065;BME280;20339;49.754;20.158;2023-02-17T11:32:09;96758.53;;;5.47;89.33
34065;BME280;20339;49.754;20.158;2023-02-17T11:34:42;96763.09;;;5.46;89.37
34065;BME280;20339;49.754;20.158;2023-02-17T11:37:22;96754.79;;;5.46;89.88
34065;BME280;20339;49.754;20.158;2023-02-17T11:39:56;96757.27;;;5.46;89.74
34065;BME280;20339;49.754;20.158;2023-02-17T11:42:30;96759.79;;;5.50;89.91
34065;BME280;20339;49.754;20.158;2023-02-17T11:45:17;96755.36;;;5.56;90.16
34065;BME280;20339;49.754;20.158;2023-02-17T11:48:01;96752.26;;;5.61;90.13
34065;BME280;20339;49.754;20.158;2023-02-17T11:50:40;96748.16;;;5.64;90.28
34065;BME280;20339;49.754;20.158;2023-02-17T11:53:22;96746.63;;;5.63;90.17
34065;BME280;20339;49.754;20.158;2023-02-17T11:56:03;96742.94;;;5.67;89.88
34065;BME280;20339;49.754;20.158;2023-02-17T11:59:10;96747.15;;;5.72;89.75
34065;BME280;20339;49.754;20.158;2023-02-17T12:01:56;96741.36;;;5.77;89.05
34065;BME280;20339;49.754;20.158;2023-02-17T12:04:32;96739.29;;;5.82;88.90
34065;BME280;20339;49.754;20.158;2023-02-17T12:07:33;96732.12;;;5.86;88.25
34065;BME280;20339;49.754;20.158;2023-02-17T12:10:12;96715.66;;;5.90;87.67
34065;BME280;20339;49.754;20.158;2023-02-17T12:12:59;96707.64;;;5.94;87.25
34065;BME280;20339;49.754;20.158;2023-02-17T12:15:50;96708.08;;;6.02;87.29
34065;BME280;20339;49.754;20.158;2023-02-17T12:18:40;96700.19;;;6.04;86.45
34065;BME280;20339;49.754;20.158;2023-02-17T12:21:23;96701.74;;;6.05;86.32
34065;BME280;20339;49.754;20.158;2023-02-17T12:24:12;96704.77;;;6.04;86.19
34065;BME280;20339;49.754;20.158;2023-02-17T12:26:52;96699.02;;;6.06;86.21
34065;BME280;20339;49.754;20.158;2023-02-17T12:29:32;96704.70;;;6.11;86.11
34065;BME280;20339;49.754;20.158;2023-02-17T12:32:27;96702.59;;;6.15;85.93
34065;BME280;20339;49.754;20.158;2023-02-17T12:35:11;96709.11;;;6.16;85.32
34065;BME280;20339;49.754;20.158;2023-02-17T12:37:49;96706.93;;;6.12;85.13
34065;BME280;20339;49.754;20.158;2023-02-17T12:40:32;96702.45;;;6.12;85.08
34065;BME280;20339;49.754;20.158;2023-02-17T12:43:18;96706.83;;;6.13;84.92
34065;BME280;20339;49.754;20.158;2023-02-17T12:45:58;96706.44;;;6.16;85.03
34065;BME280;20339;49.754;20.158;2023-02-17T12:48:37;96707.40;;;6.19;84.69
34065;BME280;20339;49.754;20.158;2023-02-17T12:51:14;96710.45;;;6.17;84.58
34065;BME280;20339;49.754;20.158;2023-02-17T12:53:52;96699.84;;;6.14;84.70
34065;BME280;20339;49.754;20.158;2023-02-17T12:56:45;96696.77;;;6.11;84.62
34065;BME280;20339;49.754;20.158;2023-02-17T12:59:21;96687.63;;;6.08;84.48
34065;BME280;20339;49.754;20.158;2023-02-17T13:01:59;96687.98;;;6.07;84.60
34065;BME280;20339;49.754;20.158;2023-02-17T13:04:32;96686.52;;;6.07;84.82
34065;BME280;20339;49.754;20.158;2023-02-17T13:07:19;96682.88;;;6.07;84.50
34065;BME280;20339;49.754;20.158;2023-02-17T13:09:54;96673.77;;;6.07;84.59
34065;BME280;20339;49.754;20.158;2023-02-17T13:12:37;96672.32;;;6.05;84.43
34065;BME280;20339;49.754;20.158;2023-02-17T13:15:28;96672.66;;;6.04;84.59
34065;BME280;20339;49.754;20.158;2023-02-17T13:18:02;96675.35;;;6.04;84.22
34065;BME280;20339;49.754;20.158;2023-02-17T13:20:58;96674.86;;;6.02;83.82
34065;BME280;20339;49.754;20.158;2023-02-17T13:23:40;96670.98;;;5.98;83.86
34065;BME280;20339;49.754;20.158;2023-02-17T13:26:24;96668.44;;;5.95;83.65
34065;BME280;20339;49.754;20.158;2023-02-17T13:29:31;96672.30;;;5.99;83.90
34065;BME280;20339;49.754;20.158;2023-02-17T13:32:05;96671.49;;;6.02;83.75
34065;BME280;20339;49.754;20.158;2023-02-17T13:34:39;96675.55;;;6.01;83.79
34065;BME280;20339;49.754;20.158;2023-02-17T13:37:23;96677.55;;;5.97;83.62
34065;BME280;20339;49.754;20.158;2023-02-17T13:39:56;96675.31;;;5.92;83.62
34065;BME280;20339;49.754;20.158;2023-02-17T13:42:35;96667.42;;;5.88;83.67
34065;BME280;20339;49.754;20.158;2023-02-17T13:45:22;96671.52;;;5.82;83.74